createdAt,value
2022-09-11T00:00:22.618Z,23.52
2022-09-11T00:02:22.649Z,23.47
2022-09-11T00:04:22.729Z,23.52
2022-09-11T00:06:29.366Z,23.61
2022-09-11T00:08:22.697Z,23.73
2022-09-11T00:10:22.703Z,23.73
2022-09-11T00:12:22.572Z,23.73
2022-09-11T00:14:22.610Z,23.81
2022-09-11T00:16:22.643Z,23.74
2022-09-11T00:18:22.563Z,23.76
2022-09-11T00:20:22.667Z,23.62
2022-09-11T00:22:22.710Z,23.76
2022-09-11T00:24:22.545Z,23.73
2022-09-11T00:26:22.734Z,23.91
2022-09-11T00:28:22.570Z,23.82
2022-09-11T00:30:22.739Z,23.82
2022-09-11T00:32:22.681Z,23.73
2022-09-11T00:34:22.578Z,23.86
2022-09-11T00:36:22.606Z,23.72
2022-09-11T00:38:22.707Z,23.69
2022-09-11T00:40:22.612Z,23.63
2022-09-11T00:42:22.561Z,23.81
2022-09-11T00:44:22.568Z,23.63
2022-09-11T00:46:22.729Z,23.59
2022-09-11T00:48:22.598Z,23.53
2022-09-11T00:50:22.577Z,23.65
2022-09-11T00:52:22.763Z,23.52
2022-09-11T00:54:22.611Z,23.57
2022-09-11T00:56:22.772Z,23.65
2022-09-11T00:58:22.782Z,23.55
2022-09-11T01:00:22.774Z,23.56
2022-09-11T01:02:27.195Z,23.53
2022-09-11T01:04:22.625Z,23.55
2022-09-11T01:06:22.767Z,23.66
2022-09-11T01:08:22.729Z,23.57
2022-09-11T01:10:22.615Z,23.62
2022-09-11T01:12:22.579Z,23.57
2022-09-11T01:14:22.635Z,23.65
2022-09-11T01:16:22.705Z,23.55
2022-09-11T01:18:22.677Z,23.53
2022-09-11T01:20:22.668Z,23.52
2022-09-11T01:22:22.681Z,23.57
2022-09-11T01:24:22.603Z,23.51
2022-09-11T01:26:22.665Z,23.69
2022-09-11T01:28:22.671Z,23.51
2022-09-11T01:30:22.649Z,23.51
2022-09-11T01:32:22.676Z,23.52
2022-09-11T01:34:22.729Z,23.59
2022-09-11T01:36:22.602Z,23.47
2022-09-11T01:38:22.819Z,23.53
2022-09-11T01:40:22.802Z,23.77
2022-09-11T01:42:22.800Z,23.65
2022-09-11T01:44:22.793Z,23.77
2022-09-11T01:46:22.712Z,23.73
2022-09-11T01:48:22.663Z,23.66
2022-09-11T01:50:22.640Z,23.56
2022-09-11T01:52:22.718Z,23.72
2022-09-11T01:54:22.671Z,23.66
2022-09-11T01:56:22.687Z,23.58
2022-09-11T01:58:22.690Z,23.53
2022-09-11T02:00:22.830Z,23.56
2022-09-11T02:02:22.658Z,23.57
2022-09-11T02:04:22.704Z,23.50
2022-09-11T02:06:22.854Z,23.62
2022-09-11T02:08:22.845Z,23.53
2022-09-11T02:10:22.701Z,23.58
2022-09-11T02:12:22.710Z,23.55
2022-09-11T02:14:22.815Z,23.53
2022-09-11T02:16:22.769Z,23.57
2022-09-11T02:18:22.655Z,23.57
2022-09-11T02:20:22.733Z,23.59
2022-09-11T02:22:22.886Z,23.59
2022-09-11T02:24:22.708Z,23.64
2022-09-11T02:26:22.736Z,23.66
2022-09-11T02:28:22.763Z,23.67
2022-09-11T02:30:22.846Z,23.65
2022-09-11T02:32:22.796Z,23.76
2022-09-11T02:34:22.734Z,23.81
2022-09-11T02:36:22.722Z,23.70
2022-09-11T02:38:22.873Z,23.57
2022-09-11T02:40:22.721Z,23.56
2022-09-11T02:42:22.801Z,23.69
2022-09-11T02:44:22.749Z,23.57
2022-09-11T02:46:22.793Z,23.52
2022-09-11T02:48:22.745Z,23.49
2022-09-11T02:50:22.787Z,23.67
2022-09-11T02:52:22.880Z,23.67
2022-09-11T02:54:22.735Z,23.75
2022-09-11T02:56:22.718Z,23.72
2022-09-11T02:58:22.691Z,23.69
2022-09-11T03:00:22.750Z,23.73
2022-09-11T03:02:23.008Z,23.78
2022-09-11T03:04:22.768Z,23.66
2022-09-11T03:06:22.789Z,23.66
2022-09-11T03:08:22.897Z,23.56
2022-09-11T03:10:22.776Z,23.59
2022-09-11T03:12:22.922Z,23.63
2022-09-11T03:14:22.924Z,23.66
2022-09-11T03:16:22.840Z,23.65
2022-09-11T03:18:22.895Z,23.63
2022-09-11T03:20:22.771Z,23.58
2022-09-11T03:22:22.926Z,23.62
2022-09-11T03:24:22.929Z,23.52
2022-09-11T03:26:22.841Z,23.59
2022-09-11T03:28:22.948Z,23.57
2022-09-11T03:30:22.803Z,23.52
2022-09-11T03:32:22.809Z,23.51
2022-09-11T03:34:22.836Z,23.47
2022-09-11T03:36:22.721Z,23.43
2022-09-11T03:38:22.733Z,23.40
2022-09-11T03:40:22.922Z,23.49
2022-09-11T03:42:22.762Z,23.50
2022-09-11T03:44:22.807Z,23.41
2022-09-11T03:46:22.936Z,23.53
2022-09-11T03:48:22.970Z,23.40
2022-09-11T03:50:22.840Z,23.39
2022-09-11T03:52:22.873Z,23.36
2022-09-11T03:54:22.970Z,23.25
2022-09-11T03:56:23.018Z,23.40
2022-09-11T03:58:22.935Z,23.50
2022-09-11T04:00:22.813Z,23.20
2022-09-11T04:02:22.821Z,23.22
2022-09-11T04:04:23.068Z,23.13
2022-09-11T04:06:22.913Z,23.13
2022-09-11T04:08:22.830Z,23.05
2022-09-11T04:10:22.799Z,23.14
2022-09-11T04:12:22.831Z,23.11
2022-09-11T04:14:22.855Z,23.08
2022-09-11T04:16:23.039Z,23.16
2022-09-11T04:18:22.959Z,23.02
2022-09-11T04:20:22.959Z,23.06
2022-09-11T04:22:23.010Z,23.06
2022-09-11T04:24:23.020Z,23.09
2022-09-11T04:26:22.899Z,23.09
2022-09-11T04:28:22.889Z,23.05
2022-09-11T04:30:22.872Z,23.25
2022-09-11T04:32:22.987Z,23.25
2022-09-11T04:34:22.904Z,23.25
2022-09-11T04:36:22.809Z,23.25
2022-09-11T04:38:22.925Z,23.25
2022-09-11T04:40:22.979Z,23.27
2022-09-11T04:42:22.890Z,23.27
2022-09-11T04:44:23.032Z,23.22
2022-09-11T04:46:22.837Z,23.25
2022-09-11T04:48:22.997Z,23.24
2022-09-11T04:50:22.905Z,23.20
2022-09-11T04:52:22.901Z,23.25
2022-09-11T04:54:22.814Z,23.32
2022-09-11T04:56:23.050Z,23.26
2022-09-11T04:58:22.927Z,23.17
2022-09-11T05:00:23.006Z,23.20
2022-09-11T05:02:23.112Z,23.24
2022-09-11T05:04:26.131Z,23.16
2022-09-11T05:06:22.893Z,23.25
2022-09-11T05:08:22.944Z,23.23
2022-09-11T05:10:23.032Z,23.20
2022-09-11T05:12:22.836Z,23.26
2022-09-11T05:14:22.985Z,23.24
2022-09-11T05:16:22.883Z,23.18
2022-09-11T05:18:22.938Z,23.18
2022-09-11T05:20:22.899Z,23.20
2022-09-11T05:22:22.961Z,23.17
2022-09-11T05:24:23.019Z,23.07
2022-09-11T05:26:23.088Z,23.13
2022-09-11T05:28:22.939Z,23.18
2022-09-11T05:30:22.946Z,23.17
2022-09-11T05:32:23.064Z,23.20
2022-09-11T05:34:23.011Z,23.25
2022-09-11T05:36:22.974Z,23.10
2022-09-11T05:38:22.922Z,23.22
2022-09-11T05:40:23.081Z,23.22
2022-09-11T05:42:22.914Z,23.25
2022-09-11T05:44:23.188Z,23.14
2022-09-11T05:46:23.120Z,23.19
2022-09-11T05:48:22.973Z,23.25
2022-09-11T05:50:22.978Z,23.27
2022-09-11T05:52:22.926Z,23.30
2022-09-11T05:54:23.087Z,23.30
2022-09-11T05:56:22.925Z,23.30
2022-09-11T05:58:22.906Z,23.33
2022-09-11T06:00:22.900Z,23.42
2022-09-11T06:02:23.202Z,23.41
2022-09-11T06:04:23.277Z,23.49
2022-09-11T06:06:22.978Z,23.27
2022-09-11T06:08:22.918Z,23.43
2022-09-11T06:10:22.978Z,23.35
2022-09-11T06:12:22.924Z,23.39
2022-09-11T06:14:23.301Z,23.37
2022-09-11T06:16:23.094Z,23.42
2022-09-11T06:18:22.996Z,23.50
2022-09-11T06:20:22.912Z,23.52
2022-09-11T06:22:22.969Z,23.53
2022-09-11T06:24:23.187Z,23.70
2022-09-11T06:26:22.987Z,23.81
2022-09-11T06:28:22.976Z,23.81
2022-09-11T06:30:23.039Z,23.86
2022-09-11T06:32:23.091Z,23.82
2022-09-11T06:34:23.164Z,23.86
2022-09-11T06:36:22.987Z,23.72
2022-09-11T06:38:23.030Z,23.86
2022-09-11T06:40:23.030Z,23.96
2022-09-11T06:42:22.999Z,24.09
2022-09-11T06:44:23.041Z,24.09
2022-09-11T06:46:23.142Z,24.00
2022-09-11T06:48:22.961Z,24.14
2022-09-11T06:50:23.040Z,24.37
2022-09-11T06:52:23.147Z,24.22
2022-09-11T06:54:23.185Z,24.19
2022-09-11T06:56:23.137Z,24.22
2022-09-11T06:58:23.217Z,24.37
2022-09-11T07:00:23.221Z,24.53
2022-09-11T07:02:23.209Z,24.70
2022-09-11T07:04:23.266Z,24.53
2022-09-11T07:06:23.025Z,24.24
2022-09-11T07:08:25.135Z,24.43
2022-09-11T07:10:23.337Z,24.29
2022-09-11T07:12:23.002Z,24.23
2022-09-11T07:14:23.250Z,24.37
2022-09-11T07:16:23.207Z,24.52
2022-09-11T07:18:23.198Z,24.61
2022-09-11T07:20:23.245Z,24.63
2022-09-11T07:22:23.046Z,24.54
2022-09-11T07:24:23.232Z,24.62
2022-09-11T07:26:23.009Z,24.57
2022-09-11T07:28:22.997Z,24.60
2022-09-11T07:30:23.173Z,24.50
2022-09-11T07:32:23.212Z,24.46
2022-09-11T07:34:23.091Z,24.50
2022-09-11T07:36:23.178Z,24.52
2022-09-11T07:38:23.211Z,24.50
2022-09-11T07:40:23.186Z,24.60
2022-09-11T07:42:23.109Z,24.85
2022-09-11T07:44:23.207Z,24.98
2022-09-11T07:46:22.988Z,24.89
2022-09-11T07:48:23.191Z,24.48
2022-09-11T07:50:23.203Z,25.07
2022-09-11T07:52:23.233Z,24.83
2022-09-11T07:54:23.209Z,25.23
2022-09-11T07:56:23.125Z,25.06
2022-09-11T07:58:23.195Z,24.94
2022-09-11T08:00:23.228Z,25.29
2022-09-11T08:02:23.287Z,25.21
2022-09-11T08:04:23.098Z,26.10
2022-09-11T08:06:23.109Z,26.16
2022-09-11T08:08:23.091Z,25.31
2022-09-11T08:10:27.644Z,25.26
2022-09-11T08:12:23.137Z,25.35
2022-09-11T08:14:23.082Z,25.25
2022-09-11T08:16:23.252Z,25.36
2022-09-11T08:18:23.260Z,25.38
2022-09-11T08:20:23.148Z,25.37
2022-09-11T08:22:23.256Z,25.33
2022-09-11T08:24:23.223Z,25.38
2022-09-11T08:26:23.251Z,25.15
2022-09-11T08:28:23.122Z,25.15
2022-09-11T08:30:23.092Z,25.29
2022-09-11T08:32:23.146Z,25.23
2022-09-11T08:34:23.147Z,25.12
2022-09-11T08:36:23.113Z,25.13
2022-09-11T08:38:23.169Z,25.23
2022-09-11T08:40:23.136Z,25.61
2022-09-11T08:42:23.336Z,25.38
2022-09-11T08:44:23.141Z,26.22
2022-09-11T08:46:23.297Z,25.99
2022-09-11T08:48:23.295Z,27.94
2022-09-11T08:50:23.227Z,26.49
2022-09-11T08:52:23.194Z,26.08
2022-09-11T08:54:23.111Z,25.80
2022-09-11T08:56:23.173Z,25.53
2022-09-11T08:58:23.173Z,25.72
2022-09-11T09:00:23.206Z,25.80
2022-09-11T09:02:23.350Z,26.70
2022-09-11T09:04:23.358Z,26.25
2022-09-11T09:06:23.180Z,26.03
2022-09-11T09:08:23.226Z,25.97
2022-09-11T09:10:23.189Z,26.27
2022-09-11T09:12:23.216Z,26.31
2022-09-11T09:14:23.191Z,25.56
2022-09-11T09:16:23.219Z,25.33
2022-09-11T09:18:23.374Z,25.44
2022-09-11T09:20:23.330Z,26.30
2022-09-11T09:22:24.765Z,26.68
2022-09-11T09:24:23.319Z,26.61
2022-09-11T09:26:23.323Z,26.24
2022-09-11T09:28:23.178Z,25.97
2022-09-11T09:30:23.228Z,26.08
2022-09-11T09:32:23.191Z,26.38
2022-09-11T09:34:23.175Z,27.50
2022-09-11T09:36:23.235Z,25.99
2022-09-11T09:38:26.834Z,27.26
2022-09-11T09:40:23.266Z,25.78
2022-09-11T09:42:23.373Z,26.89
2022-09-11T09:44:23.194Z,25.59
2022-09-11T09:46:23.264Z,25.52
2022-09-11T09:48:23.347Z,25.52
2022-09-11T09:50:23.320Z,26.69
2022-09-11T09:52:23.364Z,26.39
2022-09-11T09:54:23.388Z,27.78
2022-09-11T09:56:23.389Z,25.80
2022-09-11T09:58:23.283Z,27.85
2022-09-11T10:00:23.390Z,25.81
2022-09-11T10:02:23.274Z,26.80
2022-09-11T10:04:23.243Z,26.55
2022-09-11T10:06:23.395Z,26.38
2022-09-11T10:08:23.312Z,26.34
2022-09-11T10:10:23.339Z,25.81
2022-09-11T10:12:23.475Z,25.83
2022-09-11T10:14:49.164Z,26.24
2022-09-11T10:16:23.401Z,27.01
2022-09-11T10:18:23.301Z,27.78
2022-09-11T10:20:23.332Z,27.56
2022-09-11T10:22:23.333Z,28.01
2022-09-11T10:24:23.403Z,25.82
2022-09-11T10:26:23.408Z,27.78
2022-09-11T10:28:23.406Z,25.84
2022-09-11T10:30:23.272Z,27.72
2022-09-11T10:32:23.240Z,27.34
2022-09-11T10:34:23.322Z,26.42
2022-09-11T10:36:23.289Z,26.32
2022-09-11T10:38:23.415Z,27.78
2022-09-11T10:40:23.291Z,27.34
2022-09-11T10:42:23.282Z,27.94
2022-09-11T10:44:23.322Z,25.80
2022-09-11T10:46:23.253Z,27.80
2022-09-11T10:48:23.297Z,25.88
2022-09-11T10:50:23.493Z,27.51
2022-09-11T10:52:23.478Z,26.58
2022-09-11T10:54:23.400Z,27.22
2022-09-11T10:56:23.277Z,27.27
2022-09-11T10:58:23.331Z,27.31
2022-09-11T11:00:23.401Z,25.80
2022-09-11T11:02:23.537Z,27.56
2022-09-11T11:04:23.357Z,25.85
2022-09-11T11:06:23.341Z,27.73
2022-09-11T11:08:23.341Z,25.78
2022-09-11T11:10:23.373Z,25.86
2022-09-11T11:12:23.257Z,25.94
2022-09-11T11:14:23.468Z,25.86
2022-09-11T11:16:23.442Z,25.74
2022-09-11T11:18:23.265Z,25.82
2022-09-11T11:20:23.298Z,26.30
2022-09-11T11:22:23.519Z,25.80
2022-09-11T11:24:23.313Z,27.93
2022-09-11T11:26:23.437Z,25.75
2022-09-11T11:28:23.740Z,25.75
2022-09-11T11:30:23.694Z,25.79
2022-09-11T11:32:23.367Z,25.80
2022-09-11T11:34:23.327Z,25.83
2022-09-11T11:36:23.332Z,26.09
2022-09-11T11:38:23.460Z,25.95
2022-09-11T11:40:23.382Z,26.11
2022-09-11T11:42:23.375Z,26.00
2022-09-11T11:44:23.357Z,27.67
2022-09-11T11:46:23.504Z,27.81
2022-09-11T11:48:23.346Z,25.65
2022-09-11T11:50:23.372Z,25.75
2022-09-11T11:52:23.505Z,25.90
2022-09-11T11:54:23.418Z,25.85
2022-09-11T11:56:23.425Z,27.70
2022-09-11T11:58:23.377Z,27.67
2022-09-11T12:00:23.374Z,27.77
2022-09-11T12:02:23.652Z,27.87
2022-09-11T12:04:23.476Z,25.75
2022-09-11T12:06:23.373Z,27.97
2022-09-11T12:08:23.364Z,27.91
2022-09-11T12:10:23.486Z,25.91
2022-09-11T12:12:23.360Z,27.78
2022-09-11T12:14:23.550Z,26.64
2022-09-11T12:16:23.564Z,26.37
2022-09-11T12:18:23.403Z,28.06
2022-09-11T12:20:23.373Z,26.28
2022-09-11T12:22:23.331Z,25.88
2022-09-11T12:24:23.539Z,25.97
2022-09-11T12:26:23.527Z,26.06
2022-09-11T12:28:23.491Z,25.71
2022-09-11T12:30:23.442Z,25.39
2022-09-11T12:32:23.405Z,25.28
2022-09-11T12:34:23.627Z,25.31
2022-09-11T12:36:23.459Z,25.21
2022-09-11T12:38:23.461Z,25.36
2022-09-11T12:40:23.432Z,25.44
2022-09-11T12:42:23.684Z,25.85
2022-09-11T12:44:23.420Z,26.36
2022-09-11T12:46:23.454Z,26.38
2022-09-11T12:48:23.386Z,26.21
2022-09-11T12:50:23.565Z,26.18
2022-09-11T12:52:23.454Z,26.27
2022-09-11T12:54:23.689Z,26.04
2022-09-11T12:56:23.432Z,26.08
2022-09-11T12:58:23.728Z,26.21
2022-09-11T13:00:23.583Z,26.33
2022-09-11T13:02:23.632Z,26.27
2022-09-11T13:04:23.408Z,26.24
2022-09-11T13:06:23.441Z,26.24
2022-09-11T13:08:23.614Z,26.20
2022-09-11T13:10:23.481Z,26.08
2022-09-11T13:12:23.485Z,25.99
2022-09-11T13:14:23.679Z,26.08
2022-09-11T13:16:23.421Z,26.07
2022-09-11T13:18:23.603Z,26.06
2022-09-11T13:20:23.457Z,26.08
2022-09-11T13:22:23.487Z,26.08
2022-09-11T13:24:23.498Z,26.00
2022-09-11T13:26:23.489Z,25.98
2022-09-11T13:28:27.068Z,25.99
2022-09-11T13:30:23.490Z,25.83
2022-09-11T13:32:23.510Z,25.88
2022-09-11T13:34:23.498Z,25.99
2022-09-11T13:36:23.660Z,25.95
2022-09-11T13:38:23.467Z,25.79
2022-09-11T13:40:23.505Z,25.91
2022-09-11T13:42:23.614Z,25.65
2022-09-11T13:44:23.447Z,25.56
2022-09-11T13:46:23.466Z,25.36
2022-09-11T13:48:23.481Z,25.35
2022-09-11T13:50:23.647Z,25.18
2022-09-11T13:52:23.663Z,25.10
2022-09-11T13:54:23.489Z,25.13
2022-09-11T13:56:23.498Z,25.11
2022-09-11T13:58:23.656Z,25.19
2022-09-11T14:00:23.504Z,25.12
2022-09-11T14:02:23.598Z,25.29
2022-09-11T14:04:23.552Z,25.13
2022-09-11T14:06:23.484Z,25.61
2022-09-11T14:08:24.981Z,25.92
2022-09-11T14:10:23.469Z,26.32
2022-09-11T14:12:23.516Z,26.21
2022-09-11T14:14:23.512Z,26.18
2022-09-11T14:16:23.787Z,26.27
2022-09-11T14:18:23.666Z,26.30
2022-09-11T14:20:23.639Z,26.22
2022-09-11T14:22:23.672Z,26.18
2022-09-11T14:24:23.507Z,26.20
2022-09-11T14:26:23.530Z,26.11
2022-09-11T14:28:23.710Z,26.22
2022-09-11T14:30:23.517Z,26.13
2022-09-11T14:32:23.557Z,26.23
2022-09-11T14:34:23.495Z,25.18
2022-09-11T14:36:23.476Z,25.00
2022-09-11T14:38:23.691Z,26.22
2022-09-11T14:40:23.682Z,26.31
2022-09-11T14:42:23.641Z,26.32
2022-09-11T14:44:23.657Z,26.23
2022-09-11T14:46:23.578Z,26.22
2022-09-11T14:48:23.660Z,26.18
2022-09-11T14:50:23.610Z,26.08
2022-09-11T14:52:23.683Z,26.07
2022-09-11T14:54:23.677Z,26.08
2022-09-11T14:56:26.681Z,26.00
2022-09-11T14:58:23.612Z,25.96
2022-09-11T15:00:23.724Z,26.07
2022-09-11T15:02:23.627Z,26.14
2022-09-11T15:04:23.562Z,26.02
2022-09-11T15:06:23.736Z,26.22
2022-09-11T15:08:23.850Z,26.29
2022-09-11T15:10:23.557Z,26.43
2022-09-11T15:12:23.600Z,26.24
2022-09-11T15:14:38.499Z,26.32
2022-09-11T15:16:23.764Z,26.23
2022-09-11T15:18:23.553Z,26.32
2022-09-11T15:20:23.649Z,26.21
2022-09-11T15:22:23.526Z,26.32
2022-09-11T15:24:23.638Z,26.25
2022-09-11T15:26:23.568Z,26.23
2022-09-11T15:28:23.674Z,26.35
2022-09-11T15:30:23.840Z,26.36
2022-09-11T15:32:23.667Z,26.31
2022-09-11T15:34:23.601Z,26.30
2022-09-11T15:36:23.931Z,26.35
2022-09-11T15:38:23.620Z,26.28
2022-09-11T15:40:23.588Z,26.37
2022-09-11T15:42:23.669Z,26.46
2022-09-11T15:44:23.843Z,26.14
2022-09-11T15:46:23.647Z,26.18
2022-09-11T15:48:23.591Z,26.29
2022-09-11T15:50:23.596Z,26.32
2022-09-11T15:52:23.765Z,25.14
2022-09-11T15:54:23.624Z,26.29
2022-09-11T15:56:26.021Z,26.25
2022-09-11T15:58:23.639Z,26.13
2022-09-11T16:00:23.601Z,26.10
2022-09-11T16:02:23.682Z,26.13
2022-09-11T16:04:23.646Z,26.32
2022-09-11T16:06:23.604Z,26.10
2022-09-11T16:08:23.610Z,26.16
2022-09-11T16:10:23.600Z,26.34
2022-09-11T16:12:23.680Z,26.28
2022-09-11T16:14:23.627Z,26.07
2022-09-11T16:16:23.718Z,26.08
2022-09-11T16:18:23.661Z,26.08
2022-09-11T16:20:23.650Z,26.07
2022-09-11T16:22:23.620Z,25.83
2022-09-11T16:24:23.613Z,25.93
2022-09-11T16:26:24.826Z,25.61
2022-09-11T16:28:23.668Z,25.56
2022-09-11T16:30:42.893Z,25.37
2022-09-11T16:32:23.654Z,25.45
2022-09-11T16:34:23.674Z,25.51
2022-09-11T16:36:23.663Z,25.47
2022-09-11T16:38:23.841Z,25.42
2022-09-11T16:40:23.695Z,25.25
2022-09-11T16:42:23.728Z,25.13
2022-09-11T16:44:23.732Z,25.09
2022-09-11T16:46:23.815Z,25.10
2022-09-11T16:48:23.811Z,25.03
2022-09-11T16:50:23.824Z,25.03
2022-09-11T16:52:23.730Z,24.95
2022-09-11T16:54:23.808Z,24.95
2022-09-11T16:56:23.732Z,24.90
2022-09-11T16:58:23.732Z,24.90
2022-09-11T17:00:23.748Z,24.77
2022-09-11T17:02:23.777Z,24.95
2022-09-11T17:04:23.708Z,24.82
2022-09-11T17:06:23.969Z,24.80
2022-09-11T17:08:23.636Z,24.74
2022-09-11T17:10:23.835Z,24.75
2022-09-11T17:12:23.734Z,24.75
2022-09-11T17:14:23.663Z,24.83
2022-09-11T17:16:24.024Z,24.71
2022-09-11T17:18:23.767Z,24.66
2022-09-11T17:20:23.733Z,24.62
2022-09-11T17:22:23.865Z,24.66
2022-09-11T17:24:23.683Z,24.61
2022-09-11T17:26:23.703Z,24.64
2022-09-11T17:28:23.703Z,24.57
2022-09-11T17:30:23.780Z,24.59
2022-09-11T17:32:28.165Z,24.53
2022-09-11T17:34:23.845Z,24.66
2022-09-11T17:36:23.712Z,24.69
2022-09-11T17:38:23.789Z,24.58
2022-09-11T17:40:23.793Z,24.59
2022-09-11T17:42:23.916Z,24.55
2022-09-11T17:44:23.772Z,24.55
2022-09-11T17:46:24.007Z,24.51
2022-09-11T17:48:23.862Z,24.52
2022-09-11T17:50:23.892Z,24.57
2022-09-11T17:52:23.799Z,24.51
2022-09-11T17:54:23.789Z,24.51
2022-09-11T17:56:23.784Z,24.52
2022-09-11T17:58:23.768Z,24.52
2022-09-11T18:00:23.953Z,24.50
2022-09-11T18:02:23.757Z,24.41
2022-09-11T18:04:23.950Z,24.40
2022-09-11T18:06:23.757Z,24.67
2022-09-11T18:08:23.768Z,24.55
2022-09-11T18:10:23.691Z,24.63
2022-09-11T18:12:23.848Z,24.53
2022-09-11T18:14:23.797Z,24.64
2022-09-11T18:16:23.932Z,24.51
2022-09-11T18:18:23.922Z,24.53
2022-09-11T18:20:23.843Z,24.60
2022-09-11T18:22:23.846Z,24.50
2022-09-11T18:24:23.866Z,24.48
2022-09-11T18:26:23.946Z,24.47
2022-09-11T18:28:23.808Z,24.49
2022-09-11T18:30:23.846Z,24.47
2022-09-11T18:32:23.971Z,24.48
2022-09-11T18:34:23.945Z,24.50
2022-09-11T18:36:23.821Z,24.44
2022-09-11T18:38:23.860Z,24.43
2022-09-11T18:40:23.939Z,24.43
2022-09-11T18:42:23.929Z,24.46
2022-09-11T18:44:23.942Z,24.46
2022-09-11T18:46:23.924Z,24.38
2022-09-11T18:48:23.910Z,24.33
2022-09-11T18:50:23.955Z,24.36
2022-09-11T18:52:26.134Z,24.35
2022-09-11T18:54:23.871Z,24.37
2022-09-11T18:56:23.957Z,24.30
2022-09-11T18:58:24.019Z,24.28
2022-09-11T19:00:23.955Z,24.37
2022-09-11T19:02:23.949Z,24.24
2022-09-11T19:04:23.937Z,24.18
2022-09-11T19:06:24.041Z,24.10
2022-09-11T19:08:23.991Z,24.05
2022-09-11T19:10:24.006Z,24.25
2022-09-11T19:12:23.957Z,24.12
2022-09-11T19:14:24.007Z,24.09
2022-09-11T19:16:24.111Z,24.07
2022-09-11T19:18:23.992Z,24.09
2022-09-11T19:20:23.997Z,24.11
2022-09-11T19:22:24.020Z,24.04
2022-09-11T19:24:24.062Z,24.05
2022-09-11T19:26:24.073Z,24.04
2022-09-11T19:28:24.124Z,24.08
2022-09-11T19:30:23.918Z,24.10
2022-09-11T19:32:23.960Z,24.19
2022-09-11T19:34:24.059Z,24.08
2022-09-11T19:36:24.039Z,24.12
2022-09-11T19:38:24.104Z,23.96
2022-09-11T19:40:24.035Z,24.10
2022-09-11T19:42:24.063Z,24.09
2022-09-11T19:44:24.042Z,24.08
2022-09-11T19:46:24.227Z,24.07
2022-09-11T19:48:23.945Z,24.05
2022-09-11T19:50:23.911Z,24.10
2022-09-11T19:52:24.042Z,24.20
2022-09-11T19:54:24.081Z,24.05
2022-09-11T19:56:24.074Z,23.91
2022-09-11T19:58:24.277Z,23.81
2022-09-11T20:00:24.026Z,23.81
2022-09-11T20:02:23.995Z,23.48
2022-09-11T20:04:24.052Z,23.57
2022-09-11T20:06:24.111Z,23.47
2022-09-11T20:08:24.066Z,23.25
2022-09-11T20:10:24.063Z,23.50
2022-09-11T20:12:24.047Z,23.53
2022-09-11T20:14:24.046Z,23.54
2022-09-11T20:16:24.157Z,23.57
2022-09-11T20:18:23.961Z,23.73
2022-09-11T20:20:23.990Z,23.68
2022-09-11T20:22:24.156Z,23.63
2022-09-11T20:24:24.071Z,23.62
2022-09-11T20:26:24.150Z,23.52
2022-09-11T20:28:24.063Z,23.52
2022-09-11T20:30:24.076Z,23.53
2022-09-11T20:32:24.069Z,23.49
2022-09-11T20:34:23.968Z,23.66
2022-09-11T20:36:24.004Z,23.73
2022-09-11T20:38:23.971Z,23.76
2022-09-11T20:40:24.276Z,23.87
2022-09-11T20:42:23.983Z,23.81
2022-09-11T20:44:24.055Z,23.87
2022-09-11T20:46:24.132Z,23.86
2022-09-11T20:48:24.130Z,23.92
2022-09-11T20:50:24.136Z,23.96
2022-09-11T20:52:24.024Z,24.02
2022-09-11T20:54:24.103Z,23.87
2022-09-11T20:56:24.229Z,23.91
2022-09-11T20:58:23.988Z,23.92
2022-09-11T21:00:23.956Z,23.81
2022-09-11T21:02:24.067Z,23.87
2022-09-11T21:04:24.114Z,23.84
2022-09-11T21:06:26.170Z,23.77
2022-09-11T21:08:24.077Z,23.69
2022-09-11T21:10:23.957Z,23.62
2022-09-11T21:12:24.114Z,23.63
2022-09-11T21:14:24.126Z,23.37
2022-09-11T21:16:24.204Z,23.17
2022-09-11T21:18:24.119Z,23.33
2022-09-11T21:20:24.031Z,23.19
2022-09-11T21:22:24.123Z,23.25
2022-09-11T21:24:24.160Z,23.06
2022-09-11T21:26:24.144Z,23.25
2022-09-11T21:28:24.066Z,23.28
2022-09-11T21:30:24.170Z,23.24
2022-09-11T21:32:24.148Z,23.50
2022-09-11T21:34:24.167Z,23.31
2022-09-11T21:36:24.033Z,23.25
2022-09-11T21:38:24.139Z,23.25
2022-09-11T21:40:24.153Z,23.41
2022-09-11T21:42:24.172Z,23.39
2022-09-11T21:44:24.144Z,23.30
2022-09-11T21:46:24.204Z,23.26
2022-09-11T21:48:24.165Z,23.14
2022-09-11T21:50:24.178Z,23.20
2022-09-11T21:52:24.182Z,23.26
2022-09-11T21:54:25.377Z,23.08
2022-09-11T21:56:24.170Z,23.17
2022-09-11T21:58:24.180Z,23.11
2022-09-11T22:00:24.183Z,23.05
2022-09-11T22:02:24.257Z,23.22
2022-09-11T22:04:24.176Z,23.13
2022-09-11T22:06:24.180Z,23.27
2022-09-11T22:08:24.130Z,23.25
2022-09-11T22:10:24.079Z,23.15
2022-09-11T22:12:24.192Z,23.17
2022-09-11T22:14:24.195Z,23.26
2022-09-11T22:16:24.222Z,23.39
2022-09-11T22:18:24.166Z,23.24
2022-09-11T22:20:24.122Z,23.07
2022-09-11T22:22:24.216Z,23.25
2022-09-11T22:24:24.040Z,23.18
2022-09-11T22:26:24.196Z,23.34
2022-09-11T22:28:24.032Z,23.39
2022-09-11T22:30:24.182Z,23.17
2022-09-11T22:32:24.190Z,23.27
2022-09-11T22:34:24.057Z,23.26
2022-09-11T22:36:24.249Z,23.30
2022-09-11T22:38:24.167Z,23.42
2022-09-11T22:40:24.302Z,23.44
2022-09-11T22:42:24.246Z,23.29
2022-09-11T22:44:24.207Z,23.48
2022-09-11T22:46:24.195Z,23.31
2022-09-11T22:48:24.223Z,23.42
2022-09-11T22:50:24.234Z,23.77
2022-09-11T22:52:24.232Z,23.45
2022-09-11T22:54:24.075Z,23.47
2022-09-11T22:56:24.318Z,23.63
2022-09-11T22:58:24.135Z,23.51
2022-09-11T23:00:24.228Z,23.52
2022-09-11T23:02:24.308Z,23.27
2022-09-11T23:04:24.198Z,23.34
2022-09-11T23:06:24.253Z,23.49
2022-09-11T23:08:24.123Z,23.66
2022-09-11T23:10:24.246Z,23.43
2022-09-11T23:12:24.260Z,23.44
2022-09-11T23:14:24.236Z,23.53
2022-09-11T23:16:24.421Z,23.29
2022-09-11T23:18:24.337Z,23.21
2022-09-11T23:20:24.248Z,23.27
2022-09-11T23:22:24.309Z,23.29
2022-09-11T23:24:24.236Z,23.24
2022-09-11T23:26:24.159Z,23.20
2022-09-11T23:28:24.292Z,23.34
2022-09-11T23:30:24.119Z,23.42
2022-09-11T23:32:24.323Z,23.34
2022-09-11T23:34:24.392Z,23.40
2022-09-11T23:36:24.283Z,23.36
2022-09-11T23:38:24.354Z,23.24
2022-09-11T23:40:24.132Z,23.06
2022-09-11T23:42:24.357Z,23.39
2022-09-11T23:44:24.300Z,23.42
2022-09-11T23:46:24.325Z,23.34
2022-09-11T23:48:24.193Z,23.34
2022-09-11T23:50:24.348Z,23.53
2022-09-11T23:52:24.144Z,23.30
2022-09-11T23:54:24.277Z,23.51
2022-09-11T23:56:24.248Z,23.29
2022-09-11T23:58:24.317Z,23.26
